Time;durP1;ratioP1;P1;durP2;ratioP2;P2;SDS_P1;SDS_P2;PMS_P1;PMS_P2;Temp;Humidity;BMP_temperature;BMP_pressure;BME280_temperature;BME280_humidity;BME280_pressure;Samples;Min_cycle;Max_cycle;Signal;HPM_P1;HPM_P2
2021/05/14 00:01:38;;;;;;;4.32;3.38;;;;;;;6.74;54.58;94509.19;4961779;28;20129;-63
2021/05/14 00:04:03;;;;;;;3.53;3.20;;;;;;;6.38;55.93;94512.63;4961840;28;20125;-63
2021/05/14 00:06:29;;;;;;;5.25;3.42;;;;;;;6.49;55.42;94513.97;4962114;28;20157;-63
2021/05/14 00:08:54;;;;;;;4.95;3.30;;;;;;;6.22;56.40;94497.78;4963227;28;20075;-63
2021/05/14 00:11:20;;;;;;;3.92;3.20;;;;;;;6.10;56.40;94510.63;4962313;28;20146;-63
2021/05/14 00:13:45;;;;;;;4.60;3.25;;;;;;;6.73;55.41;94499.59;4963003;28;20095;-63
2021/05/14 00:16:11;;;;;;;3.90;3.10;;;;;;;6.59;55.25;94508.41;4958986;28;20198;-63
2021/05/14 00:18:36;;;;;;;5.55;3.30;;;;;;;6.50;55.76;94503.22;4953806;28;20615;-63
2021/05/14 00:21:03;;;;;;;4.28;3.50;;;;;;;6.40;55.79;94500.03;4962785;28;20660;-63
2021/05/14 00:23:28;;;;;;;3.17;2.88;;;;;;;6.32;56.30;94492.19;4962235;28;20111;-63
2021/05/14 00:25:54;;;;;;;4.72;3.28;;;;;;;6.52;55.95;94501.19;4960658;28;20082;-63
2021/05/14 00:28:19;;;;;;;3.53;2.88;;;;;;;5.99;57.33;94499.53;4962480;28;20150;-63
2021/05/14 00:30:45;;;;;;;4.63;3.20;;;;;;;6.10;56.47;94500.03;4962217;28;20106;-63
2021/05/14 00:33:10;;;;;;;6.28;3.67;;;;;;;6.15;56.62;94492.41;4961224;28;20130;-63
2021/05/14 00:35:35;;;;;;;6.22;3.78;;;;;;;5.96;57.05;94491.94;4959516;28;20114;-62
2021/05/14 00:38:01;;;;;;;4.80;3.63;;;;;;;5.83;57.02;94489.94;4953307;28;20094;-63
2021/05/14 00:40:26;;;;;;;4.75;3.92;;;;;;;5.93;56.59;94494.94;4962035;28;20111;-63
2021/05/14 00:42:52;;;;;;;5.53;3.83;;;;;;;5.97;56.62;94493.59;4962157;28;20105;-63
2021/05/14 00:45:17;;;;;;;5.88;4.13;;;;;;;6.35;55.62;94495.28;4961253;28;20094;-63
2021/05/14 00:47:43;;;;;;;5.30;3.85;;;;;;;6.51;55.50;94499.53;4946742;28;20095;-62
2021/05/14 00:50:09;;;;;;;5.07;3.97;;;;;;;6.44;55.30;94496.00;4953135;28;20532;-63
2021/05/14 00:52:35;;;;;;;6.30;4.05;;;;;;;6.68;54.85;94495.88;4962453;28;20107;-62
2021/05/14 00:55:00;;;;;;;6.00;4.28;;;;;;;6.75;54.50;94494.09;4941211;28;20540;-63
2021/05/14 00:57:26;;;;;;;4.25;3.85;;;;;;;6.67;54.72;94500.31;4962319;28;20090;-63
2021/05/14 00:59:51;;;;;;;5.55;4.20;;;;;;;6.84;54.89;94497.47;4962016;28;20673;-63
2021/05/14 01:02:17;;;;;;;5.75;3.92;;;;;;;7.03;53.83;94490.75;4961902;28;20394;-63
2021/05/14 01:04:43;;;;;;;6.15;4.40;;;;;;;6.92;54.16;94489.41;4959353;28;20079;-63
2021/05/14 01:07:09;;;;;;;8.40;5.00;;;;;;;6.72;55.21;94503.22;4959360;28;20166;-63
2021/05/14 01:09:34;;;;;;;6.60;4.40;;;;;;;6.97;53.82;94494.13;4962013;28;20548;-63
2021/05/14 01:12:00;;;;;;;6.97;5.32;;;;;;;6.84;54.17;94494.81;4966034;28;20678;-63
2021/05/14 01:14:26;;;;;;;6.80;5.00;;;;;;;7.05;53.67;94488.72;4965487;28;20126;-63
2021/05/14 01:16:51;;;;;;;6.28;4.30;;;;;;;7.27;53.29;94486.84;4963466;28;20611;-63
2021/05/14 01:19:17;;;;;;;6.75;4.70;;;;;;;7.22;52.89;94491.09;4955560;28;20550;-63
2021/05/14 01:21:42;;;;;;;10.75;5.45;;;;;;;7.21;52.98;94492.94;4966018;28;20079;-63
2021/05/14 01:24:08;;;;;;;9.00;6.60;;;;;;;7.04;53.41;94493.22;4965877;28;20099;-63
2021/05/14 01:26:33;;;;;;;8.13;5.70;;;;;;;6.88;53.92;94494.25;4965173;28;20111;-63
2021/05/14 01:28:59;;;;;;;8.50;5.80;;;;;;;6.38;55.36;94499.41;4964403;28;20180;-63
2021/05/14 01:31:25;;;;;;;8.85;6.03;;;;;;;6.44;55.04;94501.28;4934590;28;20152;-63
2021/05/14 01:33:50;;;;;;;8.52;6.07;;;;;;;6.43;55.38;94496.19;4963797;28;20544;-63
2021/05/14 01:36:17;;;;;;;8.27;6.00;;;;;;;6.54;55.42;94493.06;4963457;28;20597;-63
2021/05/14 01:38:42;;;;;;;9.02;6.35;;;;;;;6.24;55.89;94495.78;4956969;28;20585;-63
2021/05/14 01:41:07;;;;;;;9.00;6.68;;;;;;;6.74;55.22;94497.75;4950376;28;20087;-63
2021/05/14 01:43:33;;;;;;;10.30;6.93;;;;;;;6.36;55.99;94498.75;4950465;28;20582;-63
2021/05/14 01:45:58;;;;;;;9.90;6.88;;;;;;;6.19;56.23;94500.78;4952251;28;20076;-63
2021/05/14 01:48:24;;;;;;;9.25;7.00;;;;;;;6.05;56.61;94500.63;4950939;28;20103;-62
2021/05/14 01:50:49;;;;;;;9.38;7.15;;;;;;;6.02;57.21;94499.16;4951383;28;20189;-63
2021/05/14 01:53:15;;;;;;;9.63;6.80;;;;;;;5.91;57.16;94494.31;4955008;28;20239;-63
2021/05/14 01:55:40;;;;;;;10.85;7.20;;;;;;;6.27;55.68;94493.56;4952962;28;20523;-63
2021/05/14 01:58:06;;;;;;;9.40;6.30;;;;;;;6.09;56.58;94488.66;4950372;28;20074;-63
2021/05/14 02:00:32;;;;;;;10.27;6.95;;;;;;;6.38;56.31;94494.09;4950594;28;20114;-63
2021/05/14 02:02:57;;;;;;;10.32;7.57;;;;;;;6.53;55.55;94497.53;4952665;28;20131;-63
2021/05/14 02:05:23;;;;;;;9.98;6.93;;;;;;;6.63;55.54;94499.91;4957283;28;20092;-63
2021/05/14 02:07:48;;;;;;;10.63;7.50;;;;;;;6.86;54.81;94500.75;4958653;28;20105;-63
2021/05/14 02:10:14;;;;;;;11.35;7.72;;;;;;;7.08;54.44;94503.41;4959030;28;20091;-63
2021/05/14 02:12:39;;;;;;;9.77;7.80;;;;;;;7.02;54.37;94492.56;4961355;28;20111;-64
2021/05/14 02:15:05;;;;;;;9.70;6.60;;;;;;;7.17;53.93;94494.34;4960311;28;20099;-63
2021/05/14 02:17:31;;;;;;;10.98;6.82;;;;;;;7.08;54.03;94498.09;4958145;28;20508;-63
2021/05/14 02:19:56;;;;;;;10.32;8.02;;;;;;;7.18;53.75;94501.28;4956055;28;20190;-63
2021/05/14 02:22:22;;;;;;;10.23;7.28;;;;;;;7.37;52.95;94491.81;4960417;28;20521;-63
2021/05/14 02:24:49;;;;;;;9.55;6.82;;;;;;;7.64;52.33;94485.94;4962400;28;20095;-64
2021/05/14 02:27:15;;;;;;;10.70;7.78;;;;;;;7.46;52.78;94495.16;4960763;28;20100;-63
2021/05/14 02:29:40;;;;;;;10.27;7.40;;;;;;;7.62;52.65;94491.41;4961278;28;20559;-63
2021/05/14 02:32:06;;;;;;;10.00;7.75;;;;;;;7.49;52.86;94492.13;4955997;28;20475;-64
2021/05/14 02:34:32;;;;;;;9.45;6.68;;;;;;;7.50;52.83;94492.97;4960709;28;20122;-63
2021/05/14 02:36:57;;;;;;;9.15;7.18;;;;;;;7.39;52.97;94489.00;4959512;28;20122;-63
2021/05/14 02:39:23;;;;;;;9.48;6.65;;;;;;;7.52;52.48;94486.47;4970452;28;20107;-63
2021/05/14 02:41:48;;;;;;;10.52;6.53;;;;;;;7.64;52.18;94485.94;4969904;28;20509;-63
2021/05/14 02:44:14;;;;;;;9.60;6.55;;;;;;;7.45;52.63;94493.53;4964662;28;20484;-63
2021/05/14 02:46:39;;;;;;;7.97;6.28;;;;;;;7.41;52.38;94485.16;4962997;28;20177;-67
2021/05/14 02:49:05;;;;;;;9.43;6.60;;;;;;;7.47;52.32;94486.19;4953706;28;20896;-64
2021/05/14 02:51:31;;;;;;;8.48;6.00;;;;;;;7.56;52.15;94493.00;4967995;28;20865;-63
2021/05/14 02:53:56;;;;;;;11.73;6.63;;;;;;;7.51;51.95;94484.81;4970719;28;20098;-63
2021/05/14 02:56:22;;;;;;;9.25;5.60;;;;;;;7.55;52.07;94480.78;4960682;28;20147;-63
2021/05/14 02:58:47;;;;;;;8.02;6.18;;;;;;;7.40;52.25;94478.19;4957884;28;20103;-63
2021/05/14 03:01:12;;;;;;;10.60;6.78;;;;;;;6.74;53.72;94493.28;4961854;28;20087;-63
2021/05/14 03:03:38;;;;;;;7.78;5.18;;;;;;;7.15;52.80;94488.38;4969186;28;20111;-63
2021/05/14 03:06:03;;;;;;;7.40;5.00;;;;;;;7.39;51.95;94484.50;4959782;28;20079;-63
2021/05/14 03:08:29;;;;;;;7.32;4.90;;;;;;;7.14;52.43;94492.06;4970756;28;20107;-63
2021/05/14 03:10:55;;;;;;;9.35;7.38;;;;;;;7.12;52.53;94486.09;4966800;28;20111;-63
2021/05/14 03:13:20;;;;;;;8.98;6.47;;;;;;;7.14;52.99;94490.22;4969010;28;20114;-63
2021/05/14 03:15:45;;;;;;;9.45;6.93;;;;;;;7.44;52.03;94489.25;4967501;28;20185;-63
2021/05/14 03:18:11;;;;;;;8.52;5.45;;;;;;;7.65;51.34;94492.88;4969793;28;20744;-63
2021/05/14 03:20:36;;;;;;;9.38;6.65;;;;;;;7.43;52.08;94499.03;4957783;28;20118;-63
2021/05/14 03:23:02;;;;;;;9.52;6.18;;;;;;;7.77;51.18;94501.91;4963688;28;20544;-64
2021/05/14 03:25:27;;;;;;;11.38;6.05;;;;;;;7.85;50.70;94497.47;4958373;28;20087;-63
2021/05/14 03:27:52;;;;;;;9.40;5.72;;;;;;;7.89;50.81;94494.25;4970248;28;20115;-63
2021/05/14 03:30:18;;;;;;;7.97;5.55;;;;;;;7.81;50.79;94497.88;4968308;28;20123;-63
2021/05/14 03:32:45;;;;;;;7.20;4.88;;;;;;;7.69;51.03;94488.81;4955242;28;20120;-63
2021/05/14 03:35:10;;;;;;;9.90;5.10;;;;;;;7.59;51.28;94499.75;4957576;28;20112;-63
2021/05/14 03:37:37;;;;;;;11.07;7.32;;;;;;;7.57;51.20;94504.47;4965719;28;20106;-63
2021/05/14 03:40:14;;;;;;;8.40;6.20;;;;;;;7.52;51.57;94496.22;4959570;28;20110;-63
2021/05/14 03:42:40;;;;;;;7.88;6.00;;;;;;;7.62;51.06;94488.78;4967363;28;20109;-63
2021/05/14 03:45:06;;;;;;;8.52;6.78;;;;;;;7.47;51.17;94499.44;4962319;28;20075;-63
2021/05/14 03:47:31;;;;;;;8.20;6.38;;;;;;;7.47;51.21;94501.31;4960761;28;20115;-63
2021/05/14 03:49:58;;;;;;;9.20;6.05;;;;;;;7.21;51.79;94494.75;4965911;28;20075;-63
2021/05/14 03:52:23;;;;;;;7.90;5.45;;;;;;;7.36;51.27;94494.69;4963310;28;20103;-63
2021/05/14 03:54:49;;;;;;;8.00;6.05;;;;;;;7.40;51.02;94490.66;4965263;28;20116;-63
2021/05/14 03:57:14;;;;;;;7.43;5.45;;;;;;;7.30;51.56;94499.75;4964925;28;20126;-63
2021/05/14 03:59:39;;;;;;;9.05;5.60;;;;;;;7.24;51.60;94497.88;4956968;28;20111;-65
2021/05/14 04:02:05;;;;;;;8.27;6.00;;;;;;;7.31;51.17;94497.91;4962294;28;20123;-63
2021/05/14 04:04:30;;;;;;;6.10;4.63;;;;;;;7.39;51.05;94496.94;4961722;28;20126;-63
2021/05/14 04:06:56;;;;;;;7.88;5.00;;;;;;;7.39;50.89;94494.28;4967945;28;20571;-63
2021/05/14 04:09:47;;;;;;;7.35;4.70;;;;;;;7.44;50.79;94492.72;4969735;28;20091;-63
2021/05/14 04:14:38;;;;;;;7.18;4.68;;;;;;;7.51;50.46;94490.13;4965710;28;20505;-64
2021/05/14 04:17:04;;;;;;;6.15;4.60;;;;;;;7.51;50.79;94489.28;4969460;28;20102;-64
2021/05/14 04:19:30;;;;;;;8.70;4.68;;;;;;;7.47;50.82;94491.50;4958172;28;20126;-67
2021/05/14 04:21:57;;;;;;;6.53;4.43;;;;;;;7.56;50.68;94487.72;4963612;28;20765;-63
2021/05/14 04:24:23;;;;;;;5.80;3.80;;;;;;;7.65;50.32;94483.09;4965160;28;20107;-63
2021/05/14 04:26:49;;;;;;;7.57;4.60;;;;;;;7.65;50.34;94493.69;4966759;28;20109;-63
2021/05/14 04:29:15;;;;;;;4.05;3.33;;;;;;;7.75;50.12;94487.22;4966836;28;20083;-63
2021/05/14 04:31:42;;;;;;;6.15;4.78;;;;;;;7.75;49.94;94487.22;4967725;28;20602;-63
2021/05/14 04:34:08;;;;;;;6.57;4.78;;;;;;;7.49;50.96;94497.44;4965600;28;20162;-63
2021/05/14 04:36:33;;;;;;;4.60;3.83;;;;;;;7.55;50.94;94488.72;4961883;28;20118;-63
2021/05/14 04:38:59;;;;;;;6.05;4.55;;;;;;;7.43;51.38;94500.84;4967538;28;20106;-63
2021/05/14 04:41:24;;;;;;;8.35;5.55;;;;;;;7.46;51.17;94494.38;4965808;28;20079;-63
2021/05/14 04:43:50;;;;;;;5.13;3.53;;;;;;;7.47;51.36;94494.16;4967889;28;20488;-63
2021/05/14 04:46:15;;;;;;;5.72;3.97;;;;;;;7.74;50.80;94496.19;4958141;28;20529;-63
2021/05/14 04:48:41;;;;;;;7.88;4.90;;;;;;;7.82;50.45;94498.69;4969271;28;20107;-63
2021/05/14 04:51:07;;;;;;;4.95;4.15;;;;;;;7.82;50.61;94499.53;4955934;28;20122;-64
2021/05/14 04:53:35;;;;;;;5.00;3.78;;;;;;;7.99;50.19;94495.75;4966293;28;20103;-63
2021/05/14 04:56:01;;;;;;;5.27;3.80;;;;;;;8.20;49.72;94505.47;4967585;28;20115;-63
2021/05/14 04:58:26;;;;;;;5.82;4.03;;;;;;;8.29;49.44;94504.28;4965530;28;20555;-64
2021/05/14 05:00:52;;;;;;;5.20;3.80;;;;;;;8.40;49.28;94499.44;4956732;28;20108;-63
2021/05/14 05:03:17;;;;;;;6.65;4.25;;;;;;;8.56;48.63;94495.63;4966157;28;20107;-63
2021/05/14 05:05:42;;;;;;;5.57;3.88;;;;;;;8.60;48.64;94502.16;4968206;28;20075;-63
2021/05/14 05:08:08;;;;;;;4.32;3.60;;;;;;;8.67;48.51;94507.50;4965456;28;20119;-63
2021/05/14 05:10:33;;;;;;;7.03;4.30;;;;;;;8.64;48.70;94513.22;4961739;28;20149;-63
2021/05/14 05:12:59;;;;;;;4.68;3.63;;;;;;;8.65;48.69;94506.91;4969376;28;20606;-68
2021/05/14 05:15:24;;;;;;;4.68;3.70;;;;;;;8.58;48.58;94513.00;4964133;28;20111;-63
2021/05/14 05:17:50;;;;;;;4.53;3.22;;;;;;;8.60;48.42;94510.16;4959015;28;20157;-64
2021/05/14 05:20:15;;;;;;;2.55;2.35;;;;;;;8.61;47.73;94508.28;4962099;28;20111;-63
2021/05/14 05:22:40;;;;;;;2.75;1.80;;;;;;;8.71;47.71;94514.06;4968539;28;20343;-64
2021/05/14 05:25:07;;;;;;;2.47;2.15;;;;;;;8.81;47.26;94513.69;4968395;28;20083;-63
2021/05/14 05:27:32;;;;;;;3.20;2.25;;;;;;;8.87;46.57;94517.38;4962009;28;20131;-64
2021/05/14 05:29:57;;;;;;;3.78;2.40;;;;;;;8.89;47.33;94518.81;4959439;28;20541;-63
2021/05/14 05:32:23;;;;;;;4.22;3.00;;;;;;;9.00;47.62;94516.59;4955367;28;20647;-63
2021/05/14 05:34:48;;;;;;;2.50;2.30;;;;;;;9.24;46.96;94520.56;4963868;28;20884;-63
2021/05/14 05:37:14;;;;;;;2.30;1.83;;;;;;;9.41;46.31;94520.16;4959604;28;20135;-63
2021/05/14 05:39:39;;;;;;;5.28;2.90;;;;;;;9.37;45.32;94525.03;4952537;28;20588;-63
2021/05/14 05:42:05;;;;;;;3.42;2.80;;;;;;;9.01;45.75;94521.72;4967836;28;20153;-63
2021/05/14 05:44:30;;;;;;;2.25;2.05;;;;;;;9.18;46.61;94521.34;4955750;28;20099;-64
2021/05/14 05:46:56;;;;;;;4.75;2.40;;;;;;;9.48;46.13;94526.31;4964018;28;20103;-66
2021/05/14 05:49:22;;;;;;;3.08;2.38;;;;;;;10.11;44.67;94521.56;4962354;28;20214;-64
2021/05/14 05:51:48;;;;;;;3.70;2.45;;;;;;;10.06;44.55;94524.84;4968391;28;20655;-63
2021/05/14 05:54:13;;;;;;;5.10;2.70;;;;;;;10.32;43.97;94528.47;4956163;28;20091;-63
2021/05/14 05:56:39;;;;;;;2.63;2.33;;;;;;;10.46;43.49;94526.56;4970074;28;20111;-63
2021/05/14 05:59:06;;;;;;;4.55;2.97;;;;;;;10.52;43.08;94527.59;4966129;28;20099;-63
2021/05/14 06:01:31;;;;;;;5.95;3.13;;;;;;;10.79;43.53;94530.16;4970342;28;20491;-63
2021/05/14 06:03:56;;;;;;;3.78;2.83;;;;;;;10.82;42.90;94534.22;4958783;28;20107;-63
2021/05/14 06:06:22;;;;;;;3.80;2.95;;;;;;;10.40;43.66;94538.09;4972214;28;20150;-63
2021/05/14 06:08:47;;;;;;;6.20;3.17;;;;;;;10.61;43.36;94539.66;4959900;28;20108;-63
2021/05/14 06:11:13;;;;;;;3.67;2.80;;;;;;;10.68;43.15;94536.97;4970950;28;20659;-63
2021/05/14 06:13:38;;;;;;;3.03;2.50;;;;;;;9.92;45.04;94536.53;4958369;28;20162;-63
2021/05/14 06:16:05;;;;;;;3.05;2.83;;;;;;;9.16;46.01;94539.38;4964951;28;20110;-63
2021/05/14 06:18:43;;;;;;;3.25;2.60;;;;;;;10.28;43.93;94540.56;4971671;28;20083;-63
2021/05/14 06:21:10;;;;;;;2.08;1.98;;;;;;;10.80;42.95;94542.44;4971503;28;20436;-63
2021/05/14 06:23:36;;;;;;;3.60;2.58;;;;;;;11.28;41.23;94545.72;4969386;28;20103;-63
2021/05/14 06:26:01;;;;;;;3.08;2.63;;;;;;;10.34;43.15;94538.91;4967084;28;20099;-64
2021/05/14 06:28:27;;;;;;;4.13;2.60;;;;;;;10.20;43.41;94551.47;4957798;28;20120;-64
2021/05/14 06:30:52;;;;;;;1.88;1.55;;;;;;;10.25;41.73;94554.31;4965018;28;20421;-63
2021/05/14 06:33:18;;;;;;;2.08;1.85;;;;;;;10.77;42.07;94553.56;4967150;28;20151;-63
2021/05/14 06:35:45;;;;;;;3.38;1.92;;;;;;;10.17;41.99;94558.03;4952418;28;20107;-63
2021/05/14 06:38:11;;;;;;;2.38;1.60;;;;;;;9.34;42.29;94566.19;4962001;28;20083;-63
2021/05/14 06:40:36;;;;;;;3.05;2.00;;;;;;;9.63;43.03;94566.00;4952060;28;20107;-63
2021/05/14 06:43:01;;;;;;;5.03;1.98;;;;;;;9.79;42.86;94559.47;4953376;28;20144;-63
2021/05/14 06:45:27;;;;;;;1.75;1.38;;;;;;;9.22;42.07;94565.97;4963604;28;20083;-63
2021/05/14 06:48:00;;;;;;;3.13;2.38;;;;;;;9.09;44.53;94577.41;4966896;28;20107;-63
2021/05/14 06:50:25;;;;;;;2.55;1.55;;;;;;;8.22;44.44;94580.47;4964556;28;20075;-63
2021/05/14 06:52:51;;;;;;;3.35;1.88;;;;;;;8.20;44.49;94578.00;4968337;28;20102;-63
2021/05/14 06:55:16;;;;;;;2.67;1.35;;;;;;;8.64;42.33;94580.47;4953876;28;20490;-63
2021/05/14 06:57:42;;;;;;;2.78;1.65;;;;;;;7.90;43.99;94575.50;4970232;28;20617;-63
2021/05/14 07:00:07;;;;;;;1.25;1.15;;;;;;;8.78;42.19;94576.03;4962289;28;20142;-63
2021/05/14 07:02:33;;;;;;;2.72;1.75;;;;;;;8.31;42.62;94586.41;4970451;28;20103;-63
2021/05/14 07:04:59;;;;;;;1.88;1.25;;;;;;;8.05;43.84;94580.75;4964514;28;20079;-63
2021/05/14 07:07:25;;;;;;;3.05;1.85;;;;;;;7.95;43.99;94580.28;4970053;28;20103;-65
2021/05/14 07:09:50;;;;;;;3.10;1.92;;;;;;;7.53;45.06;94580.09;4964113;28;20083;-63
2021/05/14 07:12:15;;;;;;;3.40;1.90;;;;;;;7.91;42.18;94579.81;4965185;28;20139;-63
2021/05/14 07:14:41;;;;;;;3.22;1.77;;;;;;;8.27;41.33;94583.34;4970109;28;20165;-63
2021/05/14 07:17:06;;;;;;;2.45;1.50;;;;;;;8.54;42.36;94580.84;4969258;28;20099;-64
2021/05/14 07:19:32;;;;;;;2.20;1.30;;;;;;;9.07;40.54;94581.28;4970581;28;20107;-62
2021/05/14 07:21:57;;;;;;;2.80;1.52;;;;;;;9.67;40.68;94580.56;4964766;28;20088;-63
2021/05/14 07:24:23;;;;;;;1.70;1.25;;;;;;;8.53;39.59;94583.69;4960723;28;20197;-63
2021/05/14 07:26:48;;;;;;;1.58;1.10;;;;;;;8.69;39.87;94586.00;4966902;28;20599;-64
2021/05/14 07:29:13;;;;;;;5.45;1.35;;;;;;;8.73;39.16;94581.13;4959818;28;20083;-63
2021/05/14 07:31:39;;;;;;;3.63;1.73;;;;;;;8.89;40.19;94581.81;4969755;28;20131;-63
2021/05/14 07:34:04;;;;;;;5.07;1.30;;;;;;;9.41;39.95;94579.53;4968306;28;20106;-63
2021/05/14 07:36:30;;;;;;;2.67;1.48;;;;;;;9.42;39.02;94580.31;4968073;28;20107;-63
2021/05/14 07:38:55;;;;;;;4.25;1.55;;;;;;;9.30;40.72;94575.59;4961876;28;20103;-63
2021/05/14 07:41:21;;;;;;;2.47;1.50;;;;;;;9.08;40.46;94574.94;4967809;28;20125;-63
2021/05/14 07:43:46;;;;;;;1.85;1.67;;;;;;;8.92;40.58;94573.41;4967739;28;20130;-64
2021/05/14 07:46:12;;;;;;;4.13;1.92;;;;;;;9.82;37.16;94575.03;4959717;28;20512;-63
2021/05/14 07:48:37;;;;;;;1.70;1.40;;;;;;;8.77;39.56;94579.72;4964599;28;20541;-63
2021/05/14 07:51:03;;;;;;;2.20;1.20;;;;;;;10.46;37.91;94574.56;4951876;28;20114;-63
2021/05/14 07:53:28;;;;;;;1.50;1.17;;;;;;;9.73;40.68;94578.91;4957372;28;20126;-63
2021/05/14 07:55:54;;;;;;;1.60;1.33;;;;;;;9.18;38.42;94582.53;4969823;28;20844;-62
2021/05/14 07:58:20;;;;;;;4.10;1.45;;;;;;;9.36;38.30;94585.44;4958562;28;20551;-67
2021/05/14 08:00:48;;;;;;;2.63;1.30;;;;;;;10.11;36.36;94580.16;4961231;28;20106;-63
2021/05/14 08:03:14;;;;;;;1.80;0.95;;;;;;;9.94;38.45;94593.03;4964241;28;20600;-63
2021/05/14 08:05:40;;;;;;;1.98;1.50;;;;;;;10.02;37.75;94587.53;4963813;28;20085;-63
2021/05/14 08:08:10;;;;;;;1.23;0.98;;;;;;;10.15;36.77;94586.69;4964106;28;20472;-63
2021/05/14 08:10:36;;;;;;;2.03;1.30;;;;;;;10.32;36.93;94600.41;4962695;28;20182;-63
2021/05/14 08:13:01;;;;;;;2.22;1.73;;;;;;;10.35;36.51;94589.34;4962624;28;20115;-63
2021/05/14 08:15:27;;;;;;;3.08;1.30;;;;;;;10.90;35.39;94595.34;4961880;28;20504;-63
2021/05/14 08:17:52;;;;;;;2.58;1.17;;;;;;;10.99;35.74;94594.06;4961783;28;20102;-63
2021/05/14 08:20:18;;;;;;;1.48;1.15;;;;;;;11.19;35.38;94598.53;4960221;28;20115;-63
2021/05/14 08:22:44;;;;;;;1.58;1.08;;;;;;;10.49;36.50;94597.31;4962035;28;20197;-63
2021/05/14 08:25:11;;;;;;;1.73;0.95;;;;;;;10.67;35.72;94598.50;4961512;28;20528;-63
2021/05/14 08:27:36;;;;;;;3.40;1.00;;;;;;;11.49;33.49;94597.94;4961875;28;20222;-63
2021/05/14 08:30:03;;;;;;;2.45;1.63;;;;;;;11.74;33.18;94594.47;4962267;28;20117;-63
2021/05/14 08:32:28;;;;;;;3.30;1.30;;;;;;;11.15;35.56;94599.97;4943790;28;20179;-63
2021/05/14 08:34:53;;;;;;;1.55;1.10;;;;;;;10.18;36.05;94594.28;4957431;28;20647;-63
2021/05/14 08:37:19;;;;;;;1.23;1.10;;;;;;;10.30;35.14;94588.31;4948795;28;20540;-63
2021/05/14 08:39:44;;;;;;;1.45;1.02;;;;;;;9.94;36.20;94599.19;4959651;28;20643;-63
2021/05/14 08:42:10;;;;;;;2.25;1.10;;;;;;;11.75;32.80;94585.44;4952710;28;20403;-63
2021/05/14 08:44:35;;;;;;;2.00;1.15;;;;;;;12.31;32.39;94582.94;4960123;28;20095;-63
2021/05/14 08:47:01;;;;;;;4.65;0.98;;;;;;;11.29;36.40;94598.06;4955373;28;20678;-63
2021/05/14 08:49:26;;;;;;;1.85;1.00;;;;;;;11.52;35.12;94589.47;4938536;28;20505;-63
2021/05/14 08:51:53;;;;;;;1.33;1.23;;;;;;;11.52;36.02;94594.81;4951985;28;20196;-63
2021/05/14 08:54:18;;;;;;;3.10;1.17;;;;;;;10.39;35.72;94589.72;4958392;28;20170;-62
2021/05/14 08:56:43;;;;;;;2.40;1.42;;;;;;;11.34;35.17;94584.88;4955636;28;20107;-62
2021/05/14 08:59:09;;;;;;;1.50;1.08;;;;;;;11.64;35.31;94594.13;4953360;28;20393;-63
2021/05/14 09:01:37;;;;;;;1.65;0.80;;;;;;;12.37;33.61;94581.25;4959370;28;20083;-63
2021/05/14 09:04:07;;;;;;;1.92;1.10;;;;;;;11.14;34.66;94598.34;4956690;28;20320;-62
2021/05/14 09:06:39;;;;;;;1.67;1.20;;;;;;;9.93;37.13;94597.56;4955386;28;20115;-63
2021/05/14 09:09:06;;;;;;;1.77;1.00;;;;;;;11.85;34.35;94603.63;4945569;28;20885;-63
2021/05/14 09:11:35;;;;;;;10.50;6.20;;;;;;;11.59;36.41;94597.47;4945032;28;20139;-63
2021/05/14 09:14:00;;;;;;;1.85;0.90;;;;;;;12.43;34.95;94599.06;4948917;28;20501;-63
2021/05/14 09:16:42;;;;;;;7.78;3.15;;;;;;;13.09;32.47;94589.72;4959177;28;20106;-63
2021/05/14 09:19:09;;;;;;;4.97;2.72;;;;;;;13.60;33.44;94592.13;4955805;28;20110;-63
2021/05/14 09:21:34;;;;;;;2.10;0.90;;;;;;;13.61;31.33;94599.09;4961421;28;20089;-63
2021/05/14 09:23:59;;;;;;;3.33;1.20;;;;;;;13.28;32.05;94608.41;4954622;28;20115;-63
2021/05/14 09:26:29;;;;;;;2.00;1.08;;;;;;;12.27;34.84;94596.97;4948066;28;20087;-63
2021/05/14 09:28:54;;;;;;;2.08;1.02;;;;;;;12.24;35.06;94605.41;4955492;28;20203;-63
2021/05/14 09:31:21;;;;;;;2.38;0.90;;;;;;;12.52;34.41;94604.09;4962679;28;20177;-63
2021/05/14 09:33:47;;;;;;;1.88;1.30;;;;;;;12.20;35.06;94596.19;4958796;28;20115;-63
2021/05/14 09:36:21;;;;;;;3.33;1.40;;;;;;;12.60;34.90;94592.31;4967501;28;20126;-63
2021/05/14 09:38:47;;;;;;;1.75;1.10;;;;;;;10.53;37.53;94601.22;4967603;28;20155;-63
2021/05/14 09:41:22;;;;;;;3.80;1.75;;;;;;;12.61;34.17;94592.09;4967818;28;20091;-62
2021/05/14 09:44:01;;;;;;;1.45;0.93;;;;;;;13.32;34.64;94588.97;4963620;28;20106;-63
2021/05/14 09:46:28;;;;;;;1.33;1.10;;;;;;;12.71;33.89;94596.94;4954381;28;20079;-63
2021/05/14 09:48:58;;;;;;;2.97;1.10;;;;;;;11.95;35.04;94597.00;4963173;28;20133;-63
2021/05/14 09:51:24;;;;;;;2.63;1.10;;;;;;;11.18;36.28;94604.06;4963310;28;20143;-63
2021/05/14 09:53:49;;;;;;;1.80;1.13;;;;;;;12.79;34.61;94596.63;4962613;28;20092;-62
2021/05/14 09:56:26;;;;;;;2.15;0.98;;;;;;;11.57;36.31;94599.53;4956460;28;20445;-63
2021/05/14 09:58:52;;;;;;;3.20;1.05;;;;;;;12.89;35.06;94590.78;4956135;28;20107;-64
2021/05/14 10:01:18;;;;;;;5.05;1.10;;;;;;;12.54;35.74;94596.69;4967221;28;20178;-63
2021/05/14 10:03:43;;;;;;;1.17;0.73;;;;;;;12.71;34.86;94591.56;4953952;28;20547;-63
2021/05/14 10:06:09;;;;;;;1.38;0.88;;;;;;;12.13;38.08;94599.72;4957569;28;20142;-63
2021/05/14 10:08:35;;;;;;;2.03;0.95;;;;;;;11.01;37.94;94594.66;4939336;28;20157;-63
2021/05/14 10:11:03;;;;;;;3.80;2.03;;;;;;;13.49;33.68;94584.84;4952987;28;20119;-63
2021/05/14 10:13:32;;;;;;;5.78;1.63;;;;;;;13.82;33.31;94583.59;4937725;28;20083;-63
2021/05/14 10:16:02;;;;;;;1.63;0.90;;;;;;;14.27;33.18;94584.06;4955780;28;20576;-63
2021/05/14 10:18:27;;;;;;;1.75;1.02;;;;;;;14.50;32.35;94575.19;4940974;28;20071;-63
2021/05/14 10:20:53;;;;;;;1.77;0.80;;;;;;;15.04;32.27;94576.84;4965486;28;20436;-62
2021/05/14 10:23:18;;;;;;;2.75;2.50;;;;;;;15.24;31.71;94575.63;4952247;28;20841;-62
2021/05/14 10:25:47;;;;;;;1.17;0.68;;;;;;;15.47;30.72;94590.88;4964667;28;20083;-62
2021/05/14 10:28:13;;;;;;;1.52;0.95;;;;;;;15.18;30.36;94580.06;4964353;28;20607;-62
2021/05/14 10:31:02;;;;;;;3.10;1.08;;;;;;;15.25;29.55;94577.28;4957392;28;20110;-62
2021/05/14 10:33:50;;;;;;;0.70;0.70;;;;;;;15.39;29.83;94581.31;4959098;28;20130;-62
2021/05/14 10:36:21;;;;;;;1.42;0.95;;;;;;;15.39;31.15;94565.19;4951620;28;20135;-62
2021/05/14 10:39:08;;;;;;;0.43;0.40;;;;;;;14.02;32.24;94574.41;4963518;28;20220;-63
2021/05/14 10:41:34;;;;;;;1.15;0.90;;;;;;;14.46;31.13;94571.34;4956658;28;20092;-62
2021/05/14 10:44:06;;;;;;;3.42;0.93;;;;;;;13.93;32.35;94585.44;4955578;28;20102;-63
2021/05/14 10:46:32;;;;;;;5.97;1.05;;;;;;;11.69;35.64;94591.66;4949151;28;20372;-63
2021/05/14 10:49:06;;;;;;;0.90;0.90;;;;;;;13.89;32.70;94570.88;4958720;28;20071;-62
2021/05/14 10:51:50;;;;;;;1.50;0.80;;;;;;;14.41;30.84;94574.75;4964079;28;20121;-62
2021/05/14 10:54:43;;;;;;;0.85;0.73;;;;;;;15.65;29.22;94570.19;4963985;28;20095;-63
2021/05/14 10:57:10;;;;;;;1.45;0.70;;;;;;;13.82;30.57;94573.66;4954366;28;20490;-63
2021/05/14 10:59:36;;;;;;;0.93;0.77;;;;;;;12.92;31.12;94573.47;4957276;28;20110;-63
2021/05/14 11:02:20;;;;;;;3.33;1.00;;;;;;;14.32;31.28;94568.09;4961526;28;20482;-63
2021/05/14 11:04:46;;;;;;;1.00;0.65;;;;;;;15.16;30.26;94563.41;4956519;28;20154;-63
2021/05/14 11:07:29;;;;;;;1.02;0.80;;;;;;;15.49;30.17;94563.75;4960311;28;20103;-63
2021/05/14 11:10:13;;;;;;;1.75;0.75;;;;;;;14.92;31.31;94563.50;4963822;28;20588;-63
2021/05/14 11:12:39;;;;;;;3.17;0.88;;;;;;;13.84;31.95;94568.06;4955608;28;20441;-63
2021/05/14 11:15:28;;;;;;;16.73;7.75;;;;;;;15.18;31.17;94563.97;4949158;28;20817;-64
2021/05/14 11:18:05;;;;;;;2.33;1.10;;;;;;;14.30;31.58;94568.31;4960924;28;20169;-63
2021/05/14 11:21:00;;;;;;;;;;;;;;;13.98;32.79;94564.13;4953810;28;20118;-66
2021/05/14 11:23:38;;;;;;;3.10;1.25;;;;;;;12.92;34.27;94566.25;4956227;28;19991;-64
2021/05/14 11:26:03;;;;;;;1.17;0.80;;;;;;;13.19;32.59;94578.47;4954732;28;20087;-64
2021/05/14 11:28:50;;;;;;;2.33;0.90;;;;;;;12.57;31.64;94580.22;4957205;28;20107;-64
2021/05/14 11:31:20;;;;;;;0.82;0.77;;;;;;;12.42;32.12;94578.72;4942775;28;20117;-63
2021/05/14 11:33:47;;;;;;;4.65;2.45;;;;;;;13.70;31.63;94570.94;4953683;28;20106;-64
2021/05/14 11:36:13;;;;;;;2.38;0.85;;;;;;;13.08;32.44;94577.38;4964529;28;20103;-64
2021/05/14 11:38:59;;;;;;;1.05;0.95;;;;;;;14.33;31.37;94577.78;4962372;28;20212;-64
2021/05/14 11:41:28;;;;;;;0.70;0.52;;;;;;;15.34;28.59;94580.38;4963142;28;20141;-64